sensor_id;sensor_type;location;lat;lon;timestamp;pressure;altitude;pressure_sealevel;temperature;humidity
74230;BME280;62589;12.568;99.958;2023-03-31T00:01:49;100693.19;;;32.86;51.11
74230;BME280;62589;12.568;99.958;2023-03-31T00:04:17;100698.38;;;32.87;51.69
74230;BME280;62589;12.568;99.958;2023-03-31T00:06:48;100692.84;;;32.91;51.60
74230;BME280;62589;12.568;99.958;2023-03-31T00:09:19;100690.47;;;32.93;51.53
74230;BME280;62589;12.568;99.958;2023-03-31T00:11:50;100702.78;;;32.95;51.56
74230;BME280;62589;12.568;99.958;2023-03-31T00:14:19;100705.59;;;32.99;51.55
74230;BME280;62589;12.568;99.958;2023-03-31T00:16:46;100714.75;;;33.06;51.73
74230;BME280;62589;12.568;99.958;2023-03-31T00:19:13;100718.34;;;33.10;51.35
74230;BME280;62589;12.568;99.958;2023-03-31T00:21:49;100726.31;;;33.16;51.44
74230;BME280;62589;12.568;99.958;2023-03-31T00:24:16;100731.53;;;33.21;51.51
74230;BME280;62589;12.568;99.958;2023-03-31T00:26:43;100733.13;;;33.25;51.61
74230;BME280;62589;12.568;99.958;2023-03-31T00:29:12;100739.94;;;33.31;51.74
74230;BME280;62589;12.568;99.958;2023-03-31T00:31:39;100744.72;;;33.38;51.25
74230;BME280;62589;12.568;99.958;2023-03-31T00:34:06;100745.94;;;33.44;51.59
74230;BME280;62589;12.568;99.958;2023-03-31T00:36:33;100742.38;;;33.51;50.96
74230;BME280;62589;12.568;99.958;2023-03-31T00:39:04;100753.94;;;33.56;51.60
74230;BME280;62589;12.568;99.958;2023-03-31T00:41:36;100761.13;;;33.64;51.06
74230;BME280;62589;12.568;99.958;2023-03-31T00:44:21;100777.03;;;33.74;51.01
74230;BME280;62589;12.568;99.958;2023-03-31T00:47:12;100775.09;;;33.78;50.96
74230;BME280;62589;12.568;99.958;2023-03-31T00:49:50;100781.09;;;33.88;50.68
74230;BME280;62589;12.568;99.958;2023-03-31T00:52:32;100786.66;;;33.95;50.09
74230;BME280;62589;12.568;99.958;2023-03-31T00:55:08;100781.50;;;34.00;50.08
74230;BME280;62589;12.568;99.958;2023-03-31T00:57:35;100786.28;;;34.21;49.67
74230;BME280;62589;12.568;99.958;2023-03-31T01:00:08;100791.47;;;34.16;50.20
74230;BME280;62589;12.568;99.958;2023-03-31T01:02:43;100791.47;;;34.23;50.11
74230;BME280;62589;12.568;99.958;2023-03-31T01:05:22;100797.47;;;34.28;50.41
74230;BME280;62589;12.568;99.958;2023-03-31T01:07:51;100801.44;;;34.34;49.86
74230;BME280;62589;12.568;99.958;2023-03-31T01:10:20;100804.63;;;34.40;49.96
74230;BME280;62589;12.568;99.958;2023-03-31T01:12:50;100809.03;;;34.44;49.85
74230;BME280;62589;12.568;99.958;2023-03-31T01:15:17;100810.59;;;34.53;49.86
74230;BME280;62589;12.568;99.958;2023-03-31T01:17:44;100813.78;;;34.58;49.77
74230;BME280;62589;12.568;99.958;2023-03-31T01:26:07;100840.91;;;34.79;49.51
74230;BME280;62589;12.568;99.958;2023-03-31T01:28:51;100836.91;;;34.84;49.33
74230;BME280;62589;12.568;99.958;2023-03-31T01:34:46;100852.41;;;34.99;48.80
74230;BME280;62589;12.568;99.958;2023-03-31T01:49:24;100866.69;;;35.40;47.25
74230;BME280;62589;12.568;99.958;2023-03-31T01:55:19;100879.00;;;35.57;46.95
74230;BME280;62589;12.568;99.958;2023-03-31T01:58:16;100878.56;;;35.65;46.45
74230;BME280;62589;12.568;99.958;2023-03-31T02:00:56;100883.75;;;35.67;46.44
74230;BME280;62589;12.568;99.958;2023-03-31T02:03:37;100879.75;;;35.75;46.46
74230;BME280;62589;12.568;99.958;2023-03-31T02:06:18;100887.31;;;35.81;45.94
74230;BME280;62589;12.568;99.958;2023-03-31T02:09:10;100887.22;;;35.99;46.18
74230;BME280;62589;12.568;99.958;2023-03-31T02:11:39;100892.78;;;36.03;46.00
74230;BME280;62589;12.568;99.958;2023-03-31T02:14:10;100879.22;;;36.05;45.84
74230;BME280;62589;12.568;99.958;2023-03-31T02:16:40;100888.34;;;36.12;45.33
74230;BME280;62589;12.568;99.958;2023-03-31T02:19:15;100886.28;;;36.20;45.08
74230;BME280;62589;12.568;99.958;2023-03-31T02:21:46;100880.69;;;36.27;45.09
74230;BME280;62589;12.568;99.958;2023-03-31T02:24:18;100883.09;;;36.29;44.00
74230;BME280;62589;12.568;99.958;2023-03-31T02:26:53;100883.09;;;36.29;43.45
74230;BME280;62589;12.568;99.958;2023-03-31T02:29:21;100880.59;;;36.38;42.98
74230;BME280;62589;12.568;99.958;2023-03-31T02:34:37;100870.56;;;36.47;42.86
74230;BME280;62589;12.568;99.958;2023-03-31T02:37:04;100872.91;;;36.53;43.67
74230;BME280;62589;12.568;99.958;2023-03-31T02:39:35;100865.66;;;36.59;43.87
74230;BME280;62589;12.568;99.958;2023-03-31T02:42:03;100872.78;;;36.67;44.32
74230;BME280;62589;12.568;99.958;2023-03-31T02:44:38;100871.97;;;36.73;43.65
74230;BME280;62589;12.568;99.958;2023-03-31T02:47:13;100871.56;;;36.75;42.88
74230;BME280;62589;12.568;99.958;2023-03-31T02:49:43;100875.50;;;36.81;42.23
74230;BME280;62589;12.568;99.958;2023-03-31T02:55:43;100866.97;;;36.95;42.40
74230;BME280;62589;12.568;99.958;2023-03-31T02:58:32;100866.19;;;36.95;42.76
74230;BME280;62589;12.568;99.958;2023-03-31T03:04:11;100872.44;;;37.06;43.25
74230;BME280;62589;12.568;99.958;2023-03-31T03:10:16;100875.97;;;37.13;42.58
74230;BME280;62589;12.568;99.958;2023-03-31T03:13:08;100866.00;;;37.12;42.53
74230;BME280;62589;12.568;99.958;2023-03-31T03:15:50;100868.03;;;37.08;42.66
74230;BME280;62589;12.568;99.958;2023-03-31T03:18:19;100871.22;;;37.10;42.82
74230;BME280;62589;12.568;99.958;2023-03-31T03:20:45;100877.22;;;37.09;42.88
74230;BME280;62589;12.568;99.958;2023-03-31T03:23:16;100876.38;;;37.15;42.60
74230;BME280;62589;12.568;99.958;2023-03-31T03:25:43;100875.16;;;37.16;42.67
74230;BME280;62589;12.568;99.958;2023-03-31T03:28:10;100870.31;;;37.21;42.98
74230;BME280;62589;12.568;99.958;2023-03-31T03:30:36;100869.25;;;37.07;42.04
74230;BME280;62589;12.568;99.958;2023-03-31T03:33:02;100873.19;;;37.13;42.31
74230;BME280;62589;12.568;99.958;2023-03-31T03:35:32;100871.75;;;36.98;41.83
74230;BME280;62589;12.568;99.958;2023-03-31T03:37:58;100871.63;;;37.09;42.34
74230;BME280;62589;12.568;99.958;2023-03-31T03:40:25;100870.41;;;37.10;42.28
74230;BME280;62589;12.568;99.958;2023-03-31T03:42:51;100865.59;;;37.14;42.05
74230;BME280;62589;12.568;99.958;2023-03-31T03:45:17;100861.56;;;37.19;42.76
74230;BME280;62589;12.568;99.958;2023-03-31T03:47:44;100859.16;;;37.17;42.73
74230;BME280;62589;12.568;99.958;2023-03-31T03:50:10;100858.81;;;37.11;42.47
74230;BME280;62589;12.568;99.958;2023-03-31T03:52:38;100863.09;;;37.23;42.49
74230;BME280;62589;12.568;99.958;2023-03-31T03:55:05;100857.13;;;37.21;42.05
74230;BME280;62589;12.568;99.958;2023-03-31T03:57:32;100855.03;;;37.29;42.65
74230;BME280;62589;12.568;99.958;2023-03-31T03:59:58;100845.88;;;37.25;41.93
74230;BME280;62589;12.568;99.958;2023-03-31T04:02:24;100850.22;;;37.29;41.97
74230;BME280;62589;12.568;99.958;2023-03-31T04:04:53;100844.28;;;37.24;42.13
74230;BME280;62589;12.568;99.958;2023-03-31T04:07:19;100843.09;;;37.25;42.49
74230;BME280;62589;12.568;99.958;2023-03-31T04:09:46;100838.75;;;37.20;41.94
74230;BME280;62589;12.568;99.958;2023-03-31T04:12:12;100835.97;;;37.20;42.72
74230;BME280;62589;12.568;99.958;2023-03-31T04:14:38;100829.56;;;37.20;42.31
74230;BME280;62589;12.568;99.958;2023-03-31T04:17:05;100829.44;;;37.30;42.12
74230;BME280;62589;12.568;99.958;2023-03-31T04:19:31;100825.88;;;37.26;42.16
74230;BME280;62589;12.568;99.958;2023-03-31T04:21:57;100823.81;;;37.30;42.19
74230;BME280;62589;12.568;99.958;2023-03-31T04:24:27;100819.44;;;37.29;42.11
74230;BME280;62589;12.568;99.958;2023-03-31T04:26:58;100809.88;;;37.27;41.13
74230;BME280;62589;12.568;99.958;2023-03-31T04:29:25;100814.97;;;37.35;40.99
74230;BME280;62589;12.568;99.958;2023-03-31T04:31:53;100809.38;;;37.35;41.25
74230;BME280;62589;12.568;99.958;2023-03-31T04:34:24;100805.78;;;37.35;40.56
74230;BME280;62589;12.568;99.958;2023-03-31T04:37:00;100798.50;;;37.41;39.98
74230;BME280;62589;12.568;99.958;2023-03-31T04:39:28;100791.66;;;37.42;41.01
74230;BME280;62589;12.568;99.958;2023-03-31T04:41:58;100787.56;;;37.50;40.37
74230;BME280;62589;12.568;99.958;2023-03-31T04:44:26;100778.28;;;37.57;40.00
74230;BME280;62589;12.568;99.958;2023-03-31T04:46:53;100779.06;;;37.57;39.24
74230;BME280;62589;12.568;99.958;2023-03-31T04:49:19;100776.22;;;37.61;39.21
74230;BME280;62589;12.568;99.958;2023-03-31T04:51:46;100763.81;;;37.62;39.72
74230;BME280;62589;12.568;99.958;2023-03-31T04:54:12;100770.97;;;37.66;38.57
74230;BME280;62589;12.568;99.958;2023-03-31T04:56:39;100774.50;;;37.70;39.45
74230;BME280;62589;12.568;99.958;2023-03-31T04:59:05;100766.63;;;37.62;39.95
74230;BME280;62589;12.568;99.958;2023-03-31T05:01:33;100758.72;;;37.53;38.58
74230;BME280;62589;12.568;99.958;2023-03-31T05:04:02;100756.16;;;37.62;38.08
74230;BME280;62589;12.568;99.958;2023-03-31T05:06:29;100751.03;;;37.61;38.18
74230;BME280;62589;12.568;99.958;2023-03-31T05:08:56;100747.75;;;37.62;38.42
74230;BME280;62589;12.568;99.958;2023-03-31T05:11:22;100744.94;;;37.66;38.12
74230;BME280;62589;12.568;99.958;2023-03-31T05:13:49;100741.34;;;37.65;38.78
74230;BME280;62589;12.568;99.958;2023-03-31T05:16:15;100741.72;;;37.67;38.93
74230;BME280;62589;12.568;99.958;2023-03-31T05:18:42;100738.94;;;37.67;38.68
74230;BME280;62589;12.568;99.958;2023-03-31T05:21:14;100733.75;;;37.66;40.45
74230;BME280;62589;12.568;99.958;2023-03-31T05:23:41;100728.66;;;37.57;39.59
74230;BME280;62589;12.568;99.958;2023-03-31T05:26:08;100719.75;;;37.62;38.58
74230;BME280;62589;12.568;99.958;2023-03-31T05:28:35;100715.03;;;37.59;39.42
74230;BME280;62589;12.568;99.958;2023-03-31T05:31:03;100708.91;;;37.64;41.36
74230;BME280;62589;12.568;99.958;2023-03-31T05:33:30;100719.47;;;37.57;42.72
74230;BME280;62589;12.568;99.958;2023-03-31T05:35:57;100710.59;;;37.62;42.50
74230;BME280;62589;12.568;99.958;2023-03-31T05:38:26;100706.75;;;37.48;41.71
74230;BME280;62589;12.568;99.958;2023-03-31T05:40:54;100703.81;;;37.32;42.45
74230;BME280;62589;12.568;99.958;2023-03-31T05:43:21;100706.50;;;37.39;43.32
74230;BME280;62589;12.568;99.958;2023-03-31T05:45:47;100695.56;;;37.48;44.19
74230;BME280;62589;12.568;99.958;2023-03-31T05:48:14;100692.72;;;37.52;44.32
74230;BME280;62589;12.568;99.958;2023-03-31T05:50:41;100689.28;;;37.41;43.95
74230;BME280;62589;12.568;99.958;2023-03-31T05:53:07;100676.28;;;37.54;43.32
74230;BME280;62589;12.568;99.958;2023-03-31T05:55:37;100668.72;;;37.51;43.66
74230;BME280;62589;12.568;99.958;2023-03-31T05:58:04;100669.13;;;37.49;42.45
74230;BME280;62589;12.568;99.958;2023-03-31T06:00:31;100672.13;;;37.39;43.17
74230;BME280;62589;12.568;99.958;2023-03-31T06:02:58;100675.63;;;37.43;43.43
74230;BME280;62589;12.568;99.958;2023-03-31T06:05:25;100666.94;;;37.37;44.05
74230;BME280;62589;12.568;99.958;2023-03-31T06:07:52;100670.16;;;37.36;44.08
74230;BME280;62589;12.568;99.958;2023-03-31T06:10:19;100669.41;;;37.32;43.42
74230;BME280;62589;12.568;99.958;2023-03-31T06:12:45;100656.00;;;37.20;44.52
74230;BME280;62589;12.568;99.958;2023-03-31T06:15:12;100650.03;;;37.14;45.26
74230;BME280;62589;12.568;99.958;2023-03-31T06:17:38;100636.84;;;37.14;44.68
74230;BME280;62589;12.568;99.958;2023-03-31T06:20:05;100634.47;;;37.13;45.31
74230;BME280;62589;12.568;99.958;2023-03-31T06:22:32;100634.84;;;37.15;45.12
74230;BME280;62589;12.568;99.958;2023-03-31T06:24:58;100631.19;;;37.18;45.37
74230;BME280;62589;12.568;99.958;2023-03-31T06:27:25;100621.22;;;37.17;46.01
74230;BME280;62589;12.568;99.958;2023-03-31T06:29:51;100634.50;;;37.09;47.04
74230;BME280;62589;12.568;99.958;2023-03-31T06:32:18;100609.25;;;37.13;46.98
74230;BME280;62589;12.568;99.958;2023-03-31T06:34:44;100610.44;;;37.15;46.52
74230;BME280;62589;12.568;99.958;2023-03-31T06:37:11;100604.84;;;37.15;46.76
74230;BME280;62589;12.568;99.958;2023-03-31T06:39:37;100611.47;;;36.98;46.03
74230;BME280;62589;12.568;99.958;2023-03-31T06:42:04;100595.47;;;36.99;47.07
74230;BME280;62589;12.568;99.958;2023-03-31T06:44:32;100594.19;;;37.03;46.79
74230;BME280;62589;12.568;99.958;2023-03-31T06:46:58;100594.53;;;37.09;45.71
74230;BME280;62589;12.568;99.958;2023-03-31T06:49:24;100600.00;;;36.89;46.06
74230;BME280;62589;12.568;99.958;2023-03-31T06:51:51;100582.75;;;36.94;47.30
74230;BME280;62589;12.568;99.958;2023-03-31T06:54:17;100577.91;;;36.98;47.19
74230;BME280;62589;12.568;99.958;2023-03-31T06:56:44;100578.19;;;36.77;46.75
74230;BME280;62589;12.568;99.958;2023-03-31T06:59:10;100578.81;;;36.88;48.17
74230;BME280;62589;12.568;99.958;2023-03-31T07:01:37;100565.13;;;36.97;48.15
74230;BME280;62589;12.568;99.958;2023-03-31T07:04:04;100581.00;;;36.77;48.17
74230;BME280;62589;12.568;99.958;2023-03-31T07:06:30;100562.38;;;36.94;48.33
74230;BME280;62589;12.568;99.958;2023-03-31T07:08:57;100566.88;;;36.84;48.08
74230;BME280;62589;12.568;99.958;2023-03-31T07:11:23;100550.38;;;36.93;47.54
74230;BME280;62589;12.568;99.958;2023-03-31T07:13:49;100555.69;;;36.84;47.65
74230;BME280;62589;12.568;99.958;2023-03-31T07:16:16;100557.41;;;36.78;48.37
74230;BME280;62589;12.568;99.958;2023-03-31T07:18:43;100547.13;;;36.98;48.31
74230;BME280;62589;12.568;99.958;2023-03-31T07:21:10;100542.25;;;36.75;48.79
74230;BME280;62589;12.568;99.958;2023-03-31T07:23:37;100541.72;;;36.84;47.73
74230;BME280;62589;12.568;99.958;2023-03-31T07:26:03;100529.91;;;36.73;48.08
74230;BME280;62589;12.568;99.958;2023-03-31T07:28:31;100530.06;;;36.89;48.28
74230;BME280;62589;12.568;99.958;2023-03-31T07:30:58;100527.25;;;36.89;48.37
74230;BME280;62589;12.568;99.958;2023-03-31T07:33:24;100529.69;;;36.57;48.75
74230;BME280;62589;12.568;99.958;2023-03-31T07:35:51;100517.19;;;36.65;48.81
74230;BME280;62589;12.568;99.958;2023-03-31T07:38:17;100523.31;;;36.56;48.72
74230;BME280;62589;12.568;99.958;2023-03-31T07:40:44;100519.66;;;36.29;50.15
74230;BME280;62589;12.568;99.958;2023-03-31T07:43:11;100521.88;;;36.41;50.06
74230;BME280;62589;12.568;99.958;2023-03-31T07:45:39;100513.69;;;36.23;50.69
74230;BME280;62589;12.568;99.958;2023-03-31T07:48:06;100503.06;;;36.11;51.55
74230;BME280;62589;12.568;99.958;2023-03-31T07:50:32;100496.53;;;36.25;51.14
74230;BME280;62589;12.568;99.958;2023-03-31T07:52:58;100497.50;;;36.41;51.17
74230;BME280;62589;12.568;99.958;2023-03-31T07:55:25;100481.88;;;36.47;51.13
74230;BME280;62589;12.568;99.958;2023-03-31T07:57:52;100477.03;;;36.52;51.11
74230;BME280;62589;12.568;99.958;2023-03-31T08:00:19;100480.56;;;36.25;51.71
74230;BME280;62589;12.568;99.958;2023-03-31T08:02:46;100490.53;;;36.23;52.17
74230;BME280;62589;12.568;99.958;2023-03-31T08:05:15;100483.69;;;36.31;51.82
74230;BME280;62589;12.568;99.958;2023-03-31T08:07:44;100497.34;;;36.22;52.71
74230;BME280;62589;12.568;99.958;2023-03-31T08:10:15;100490.94;;;36.25;52.77
74230;BME280;62589;12.568;99.958;2023-03-31T08:12:42;100487.09;;;36.11;53.90
74230;BME280;62589;12.568;99.958;2023-03-31T08:15:09;100494.28;;;36.12;54.12
74230;BME280;62589;12.568;99.958;2023-03-31T08:17:35;100478.56;;;36.22;54.12
74230;BME280;62589;12.568;99.958;2023-03-31T08:20:03;100474.84;;;36.36;53.43
74230;BME280;62589;12.568;99.958;2023-03-31T08:22:32;100475.34;;;36.27;54.12
74230;BME280;62589;12.568;99.958;2023-03-31T08:24:59;100462.97;;;36.28;54.07
74230;BME280;62589;12.568;99.958;2023-03-31T08:27:25;100462.22;;;36.21;53.58
74230;BME280;62589;12.568;99.958;2023-03-31T08:29:52;100443.81;;;36.27;53.83
74230;BME280;62589;12.568;99.958;2023-03-31T08:32:22;100450.19;;;36.27;54.02
74230;BME280;62589;12.568;99.958;2023-03-31T08:34:49;100460.06;;;36.01;55.02
74230;BME280;62589;12.568;99.958;2023-03-31T08:37:16;100455.66;;;36.04;55.40
74230;BME280;62589;12.568;99.958;2023-03-31T08:39:42;100442.06;;;36.06;55.01
74230;BME280;62589;12.568;99.958;2023-03-31T08:42:25;100442.47;;;36.04;55.11
74230;BME280;62589;12.568;99.958;2023-03-31T08:45:16;100432.75;;;36.16;55.09
74230;BME280;62589;12.568;99.958;2023-03-31T08:47:46;100438.50;;;36.02;55.70
74230;BME280;62589;12.568;99.958;2023-03-31T08:50:19;100430.69;;;35.90;56.09
74230;BME280;62589;12.568;99.958;2023-03-31T08:55:52;100408.53;;;36.06;55.90
74230;BME280;62589;12.568;99.958;2023-03-31T08:58:39;100419.50;;;35.90;55.46
74230;BME280;62589;12.568;99.958;2023-03-31T09:01:26;100410.44;;;35.78;56.78
74230;BME280;62589;12.568;99.958;2023-03-31T09:18:37;100419.72;;;35.68;56.18
74230;BME280;62589;12.568;99.958;2023-03-31T09:21:24;100427.03;;;35.55;56.49
74230;BME280;62589;12.568;99.958;2023-03-31T09:26:52;100440.56;;;35.60;57.35
74230;BME280;62589;12.568;99.958;2023-03-31T09:29:41;100424.69;;;35.54;57.45
74230;BME280;62589;12.568;99.958;2023-03-31T09:32:28;100432.63;;;35.55;57.20
74230;BME280;62589;12.568;99.958;2023-03-31T09:35:01;100438.56;;;35.61;56.42
74230;BME280;62589;12.568;99.958;2023-03-31T09:37:37;100436.16;;;35.63;56.36
74230;BME280;62589;12.568;99.958;2023-03-31T09:40:04;100426.94;;;35.66;56.42
74230;BME280;62589;12.568;99.958;2023-03-31T09:42:36;100432.44;;;35.73;56.52
74230;BME280;62589;12.568;99.958;2023-03-31T09:45:04;100424.22;;;35.59;56.68
74230;BME280;62589;12.568;99.958;2023-03-31T09:47:40;100419.75;;;35.65;56.57
74230;BME280;62589;12.568;99.958;2023-03-31T09:50:09;100418.16;;;35.67;56.22
74230;BME280;62589;12.568;99.958;2023-03-31T09:52:55;100416.56;;;35.66;56.68
74230;BME280;62589;12.568;99.958;2023-03-31T09:55:53;100428.56;;;35.63;56.61
74230;BME280;62589;12.568;99.958;2023-03-31T09:58:21;100434.97;;;35.60;56.55
74230;BME280;62589;12.568;99.958;2023-03-31T10:01:07;100421.00;;;35.60;56.58
74230;BME280;62589;12.568;99.958;2023-03-31T10:03:51;100428.63;;;35.56;56.78
74230;BME280;62589;12.568;99.958;2023-03-31T10:06:20;100427.84;;;35.56;56.66
74230;BME280;62589;12.568;99.958;2023-03-31T10:09:01;100432.31;;;35.50;57.10
74230;BME280;62589;12.568;99.958;2023-03-31T10:11:28;100429.16;;;35.44;57.39
74230;BME280;62589;12.568;99.958;2023-03-31T10:14:04;100435.13;;;35.46;56.89
74230;BME280;62589;12.568;99.958;2023-03-31T10:16:34;100435.13;;;35.46;56.96
74230;BME280;62589;12.568;99.958;2023-03-31T10:19:17;100438.47;;;35.27;57.90
74230;BME280;62589;12.568;99.958;2023-03-31T10:21:47;100436.78;;;35.40;57.29
74230;BME280;62589;12.568;99.958;2023-03-31T10:24:18;100441.97;;;35.38;57.10
74230;BME280;62589;12.568;99.958;2023-03-31T10:26:48;100450.06;;;35.29;57.58
74230;BME280;62589;12.568;99.958;2023-03-31T10:29:22;100467.91;;;35.35;57.23
74230;BME280;62589;12.568;99.958;2023-03-31T10:31:51;100478.00;;;35.22;58.02
74230;BME280;62589;12.568;99.958;2023-03-31T10:34:18;100478.72;;;35.33;57.65
74230;BME280;62589;12.568;99.958;2023-03-31T10:36:47;100478.72;;;35.33;58.09
74230;BME280;62589;12.568;99.958;2023-03-31T10:39:16;100487.44;;;35.38;57.45
74230;BME280;62589;12.568;99.958;2023-03-31T10:41:52;100489.13;;;35.25;58.05
74230;BME280;62589;12.568;99.958;2023-03-31T10:44:37;100501.09;;;35.26;58.48
74230;BME280;62589;12.568;99.958;2023-03-31T10:47:08;100491.59;;;35.16;58.32
74230;BME280;62589;12.568;99.958;2023-03-31T10:49:43;100493.56;;;35.15;58.20
74230;BME280;62589;12.568;99.958;2023-03-31T10:52:22;100499.88;;;35.27;57.48
74230;BME280;62589;12.568;99.958;2023-03-31T10:54:58;100501.91;;;35.23;57.58
74230;BME280;62589;12.568;99.958;2023-03-31T10:57:48;100507.47;;;35.23;56.76
74230;BME280;62589;12.568;99.958;2023-03-31T11:06:32;100526.09;;;35.40;54.27
74230;BME280;62589;12.568;99.958;2023-03-31T11:09:18;100528.06;;;35.43;54.04
74230;BME280;62589;12.568;99.958;2023-03-31T11:15:05;100532.47;;;35.44;54.20
74230;BME280;62589;12.568;99.958;2023-03-31T11:20:35;100541.25;;;35.42;54.30
74230;BME280;62589;12.568;99.958;2023-03-31T11:23:30;100558.78;;;35.43;54.24
74230;BME280;62589;12.568;99.958;2023-03-31T11:26:09;100546.84;;;35.39;54.31
74230;BME280;62589;12.568;99.958;2023-03-31T11:28:58;100556.03;;;35.36;54.06
74230;BME280;62589;12.568;99.958;2023-03-31T11:46:39;100569.63;;;35.34;54.35
74230;BME280;62589;12.568;99.958;2023-03-31T11:49:29;100564.53;;;35.18;54.92
74230;BME280;62589;12.568;99.958;2023-03-31T11:52:02;100567.69;;;35.24;55.04
74230;BME280;62589;12.568;99.958;2023-03-31T11:54:40;100573.31;;;35.13;54.85
74230;BME280;62589;12.568;99.958;2023-03-31T11:57:15;100571.25;;;35.24;54.58
74230;BME280;62589;12.568;99.958;2023-03-31T11:59:55;100575.66;;;35.25;54.88
74230;BME280;62589;12.568;99.958;2023-03-31T12:02:53;100586.75;;;35.36;54.29
74230;BME280;62589;12.568;99.958;2023-03-31T12:05:24;100578.84;;;35.31;54.51
74230;BME280;62589;12.568;99.958;2023-03-31T12:08:02;100575.66;;;35.29;54.91
74230;BME280;62589;12.568;99.958;2023-03-31T12:10:35;100580.81;;;35.27;54.61
74230;BME280;62589;12.568;99.958;2023-03-31T12:16:22;100589.94;;;35.38;54.28
74230;BME280;62589;12.568;99.958;2023-03-31T12:22:14;100593.09;;;35.40;54.10
74230;BME280;62589;12.568;99.958;2023-03-31T12:24:42;100595.50;;;35.38;53.93
74230;BME280;62589;12.568;99.958;2023-03-31T12:30:35;100601.91;;;35.35;54.14
74230;BME280;62589;12.568;99.958;2023-03-31T12:33:30;100610.66;;;35.37;54.02
74230;BME280;62589;12.568;99.958;2023-03-31T12:39:17;100620.22;;;35.39;53.46
74230;BME280;62589;12.568;99.958;2023-03-31T12:42:10;100626.59;;;35.43;53.61
74230;BME280;62589;12.568;99.958;2023-03-31T12:51:16;100612.28;;;35.34;54.14
74230;BME280;62589;12.568;99.958;2023-03-31T12:57:10;100625.88;;;35.32;54.19
74230;BME280;62589;12.568;99.958;2023-03-31T12:59:39;100623.44;;;35.34;54.08
74230;BME280;62589;12.568;99.958;2023-03-31T13:02:24;100629.00;;;35.38;53.72
74230;BME280;62589;12.568;99.958;2023-03-31T13:04:51;100631.81;;;35.34;54.01
74230;BME280;62589;12.568;99.958;2023-03-31T13:07:36;100637.38;;;35.38;53.77
74230;BME280;62589;12.568;99.958;2023-03-31T13:10:25;100633.38;;;35.39;53.67
74230;BME280;62589;12.568;99.958;2023-03-31T13:12:59;100643.84;;;35.28;54.20
74230;BME280;62589;12.568;99.958;2023-03-31T13:15:27;100646.63;;;35.28;53.96
74230;BME280;62589;12.568;99.958;2023-03-31T13:18:03;100648.59;;;35.27;54.22
74230;BME280;62589;12.568;99.958;2023-03-31T13:20:36;100647.81;;;35.30;53.87
74230;BME280;62589;12.568;99.958;2023-03-31T13:23:21;100639.78;;;35.36;53.84
74230;BME280;62589;12.568;99.958;2023-03-31T13:25:57;100658.13;;;35.37;53.66
74230;BME280;62589;12.568;99.958;2023-03-31T13:28:42;100653.75;;;35.36;53.72
74230;BME280;62589;12.568;99.958;2023-03-31T13:31:11;100653.75;;;35.36;53.96
74230;BME280;62589;12.568;99.958;2023-03-31T13:36:42;100657.69;;;35.45;53.60
74230;BME280;62589;12.568;99.958;2023-03-31T13:42:38;100655.38;;;35.33;53.66
74230;BME280;62589;12.568;99.958;2023-03-31T13:51:18;100658.22;;;35.15;53.24
74230;BME280;62589;12.568;99.958;2023-03-31T13:54:11;100653.88;;;35.11;52.57
74230;BME280;62589;12.568;99.958;2023-03-31T14:03:18;100683.34;;;35.15;52.33
74230;BME280;62589;12.568;99.958;2023-03-31T14:08:50;100677.47;;;34.96;53.00
74230;BME280;62589;12.568;99.958;2023-03-31T14:11:26;100674.69;;;34.92;53.00
74230;BME280;62589;12.568;99.958;2023-03-31T14:14:14;100675.91;;;34.91;52.93
74230;BME280;62589;12.568;99.958;2023-03-31T14:16:59;100689.41;;;35.00;52.91
74230;BME280;62589;12.568;99.958;2023-03-31T14:19:55;100681.03;;;35.00;53.02
74230;BME280;62589;12.568;99.958;2023-03-31T14:28:44;100707.75;;;34.97;53.14
74230;BME280;62589;12.568;99.958;2023-03-31T14:34:39;100722.06;;;35.03;53.03
74230;BME280;62589;12.568;99.958;2023-03-31T14:37:14;100720.88;;;35.00;53.05
74230;BME280;62589;12.568;99.958;2023-03-31T14:39:53;100729.66;;;35.02;53.37
74230;BME280;62589;12.568;99.958;2023-03-31T14:42:25;100731.69;;;34.91;54.59
74230;BME280;62589;12.568;99.958;2023-03-31T14:44:56;100720.94;;;34.86;54.58
74230;BME280;62589;12.568;99.958;2023-03-31T14:47:26;100735.69;;;34.87;54.39
74230;BME280;62589;12.568;99.958;2023-03-31T14:50:02;100730.91;;;34.87;54.81
74230;BME280;62589;12.568;99.958;2023-03-31T14:52:31;100729.72;;;34.81;54.83
74230;BME280;62589;12.568;99.958;2023-03-31T14:55:00;100739.25;;;34.73;55.69
74230;BME280;62589;12.568;99.958;2023-03-31T14:57:37;100736.91;;;34.64;55.85
74230;BME280;62589;12.568;99.958;2023-03-31T15:00:07;100730.91;;;34.76;55.57
74230;BME280;62589;12.568;99.958;2023-03-31T15:02:41;100729.72;;;34.81;55.38
74230;BME280;62589;12.568;99.958;2023-03-31T15:05:17;100737.69;;;34.83;55.63
74230;BME280;62589;12.568;99.958;2023-03-31T15:07:47;100750.41;;;34.73;56.46
74230;BME280;62589;12.568;99.958;2023-03-31T15:10:19;100754.03;;;34.63;56.89
74230;BME280;62589;12.568;99.958;2023-03-31T15:12:48;100750.81;;;34.71;56.48
74230;BME280;62589;12.568;99.958;2023-03-31T15:15:22;100761.22;;;34.57;57.04
74230;BME280;62589;12.568;99.958;2023-03-31T15:17:50;100758.41;;;34.67;56.78
74230;BME280;62589;12.568;99.958;2023-03-31T15:20:37;100760.78;;;34.72;56.93
74230;BME280;62589;12.568;99.958;2023-03-31T15:23:25;100761.22;;;34.71;57.20
74230;BME280;62589;12.568;99.958;2023-03-31T15:25:57;100762.81;;;34.68;57.15